sensor_id;sensor_type;location;lat;lon;timestamp;pressure;altitude;pressure_sealevel;temperature;humidity
75604;BME280;64187;51.010;13.792;2022-10-16T00:01:47;100025.03;;;14.42;84.81
75604;BME280;64187;51.010;13.792;2022-10-16T00:06:46;100030.19;;;14.28;85.32
75604;BME280;64187;51.010;13.792;2022-10-16T00:11:44;100034.28;;;14.41;84.98
75604;BME280;64187;51.010;13.792;2022-10-16T00:16:44;100025.56;;;14.18;85.88
75604;BME280;64187;51.010;13.792;2022-10-16T00:21:43;100037.31;;;14.19;85.98
75604;BME280;64187;51.010;13.792;2022-10-16T00:26:41;100037.84;;;14.16;85.79
75604;BME280;64187;51.010;13.792;2022-10-16T00:31:40;100041.91;;;14.08;86.02
75604;BME280;64187;51.010;13.792;2022-10-16T00:36:39;100040.28;;;14.17;85.78
75604;BME280;64187;51.010;13.792;2022-10-16T00:41:38;100037.56;;;14.28;85.14
75604;BME280;64187;51.010;13.792;2022-10-16T00:46:38;100046.84;;;14.21;85.84
75604;BME280;64187;51.010;13.792;2022-10-16T00:51:49;100056.06;;;14.20;85.60
75604;BME280;64187;51.010;13.792;2022-10-16T00:56:49;100058.53;;;14.17;85.25
75604;BME280;64187;51.010;13.792;2022-10-16T01:01:49;100058.25;;;14.03;85.28
75604;BME280;64187;51.010;13.792;2022-10-16T01:17:34;100053.91;;;13.87;85.78
75604;BME280;64187;51.010;13.792;2022-10-16T01:22:43;100059.09;;;14.09;85.99
75604;BME280;64187;51.010;13.792;2022-10-16T01:27:46;100059.06;;;13.98;85.81
75604;BME280;64187;51.010;13.792;2022-10-16T01:32:50;100067.53;;;14.07;85.64
75604;BME280;64187;51.010;13.792;2022-10-16T01:38:02;100062.88;;;13.97;85.46
75604;BME280;64187;51.010;13.792;2022-10-16T01:43:05;100084.09;;;13.90;85.69
75604;BME280;64187;51.010;13.792;2022-10-16T01:48:06;100082.19;;;13.96;85.30
75604;BME280;64187;51.010;13.792;2022-10-16T01:53:09;100082.50;;;14.05;85.21
75604;BME280;64187;51.010;13.792;2022-10-16T01:58:11;100068.88;;;14.05;85.12
75604;BME280;64187;51.010;13.792;2022-10-16T02:03:12;100074.31;;;14.15;85.18
75604;BME280;64187;51.010;13.792;2022-10-16T02:08:12;100084.94;;;14.21;85.47
75604;BME280;64187;51.010;13.792;2022-10-16T02:13:32;100088.75;;;14.26;85.60
75604;BME280;64187;51.010;13.792;2022-10-16T02:18:32;100087.91;;;14.46;84.88
75604;BME280;64187;51.010;13.792;2022-10-16T02:23:45;100091.19;;;14.42;85.11
75604;BME280;64187;51.010;13.792;2022-10-16T02:34:35;100082.47;;;14.51;84.99
75604;BME280;64187;51.010;13.792;2022-10-16T02:39:34;100081.97;;;14.54;84.77
75604;BME280;64187;51.010;13.792;2022-10-16T02:44:33;100090.38;;;14.57;84.73
75604;BME280;64187;51.010;13.792;2022-10-16T02:49:33;100083.56;;;14.60;84.63
75604;BME280;64187;51.010;13.792;2022-10-16T02:54:31;100089.56;;;14.67;84.47
75604;BME280;64187;51.010;13.792;2022-10-16T02:59:30;100085.47;;;14.70;84.31
75604;BME280;64187;51.010;13.792;2022-10-16T03:04:29;100085.47;;;14.70;84.45
75604;BME280;64187;51.010;13.792;2022-10-16T03:09:28;100073.22;;;14.67;84.11
75604;BME280;64187;51.010;13.792;2022-10-16T03:14:26;100073.78;;;14.59;84.37
75604;BME280;64187;51.010;13.792;2022-10-16T03:19:30;100085.75;;;14.63;84.46
75604;BME280;64187;51.010;13.792;2022-10-16T03:24:29;100093.38;;;14.76;83.96
75604;BME280;64187;51.010;13.792;2022-10-16T03:29:27;100092.84;;;14.64;84.63
75604;BME280;64187;51.010;13.792;2022-10-16T03:34:27;100101.25;;;14.73;84.27
75604;BME280;64187;51.010;13.792;2022-10-16T03:39:26;100105.91;;;14.67;84.45
75604;BME280;64187;51.010;13.792;2022-10-16T03:44:26;100102.91;;;14.74;84.28
75604;BME280;64187;51.010;13.792;2022-10-16T03:49:24;100116.78;;;14.77;84.32
75604;BME280;64187;51.010;13.792;2022-10-16T03:54:23;100112.47;;;14.66;84.64
75604;BME280;64187;51.010;13.792;2022-10-16T03:59:22;100103.75;;;14.54;85.12
75604;BME280;64187;51.010;13.792;2022-10-16T04:04:21;100120.09;;;14.59;84.97
75604;BME280;64187;51.010;13.792;2022-10-16T04:09:20;100122.81;;;14.59;84.96
75604;BME280;64187;51.010;13.792;2022-10-16T04:14:19;100119.28;;;14.63;84.78
75604;BME280;64187;51.010;13.792;2022-10-16T04:19:17;100134.22;;;14.51;85.29
75604;BME280;64187;51.010;13.792;2022-10-16T04:24:16;100145.66;;;14.53;85.19
75604;BME280;64187;51.010;13.792;2022-10-16T04:29:15;100141.88;;;14.49;85.45
75604;BME280;64187;51.010;13.792;2022-10-16T04:34:13;100124.44;;;14.39;85.48
75604;BME280;64187;51.010;13.792;2022-10-16T04:39:12;100132.59;;;14.50;85.14
75604;BME280;64187;51.010;13.792;2022-10-16T04:44:11;100148.94;;;14.50;84.99
75604;BME280;64187;51.010;13.792;2022-10-16T04:49:10;100148.94;;;14.39;85.35
75604;BME280;64187;51.010;13.792;2022-10-16T04:54:09;100158.47;;;14.37;85.44
75604;BME280;64187;51.010;13.792;2022-10-16T04:59:09;100152.22;;;14.47;85.17
75604;BME280;64187;51.010;13.792;2022-10-16T05:04:08;100144.84;;;14.42;85.44
75604;BME280;64187;51.010;13.792;2022-10-16T05:09:08;100143.22;;;14.46;85.02
75604;BME280;64187;51.010;13.792;2022-10-16T05:14:07;100148.66;;;14.51;84.94
75604;BME280;64187;51.010;13.792;2022-10-16T05:19:05;100158.72;;;14.51;85.00
75604;BME280;64187;51.010;13.792;2022-10-16T05:24:25;100152.47;;;14.40;85.14
75604;BME280;64187;51.010;13.792;2022-10-16T05:29:24;100154.63;;;14.43;85.29
75604;BME280;64187;51.010;13.792;2022-10-16T05:34:23;100159.56;;;14.41;85.19
75604;BME280;64187;51.010;13.792;2022-10-16T05:39:22;100171.28;;;14.41;85.31
75604;BME280;64187;51.010;13.792;2022-10-16T05:44:21;100168.25;;;14.43;85.03
75604;BME280;64187;51.010;13.792;2022-10-16T05:49:20;100173.69;;;14.43;85.17
75604;BME280;64187;51.010;13.792;2022-10-16T05:54:19;100180.81;;;14.49;85.01
75604;BME280;64187;51.010;13.792;2022-10-16T05:59:17;100198.50;;;14.52;84.81
75604;BME280;64187;51.010;13.792;2022-10-16T06:04:16;100204.22;;;14.50;84.90
75604;BME280;64187;51.010;13.792;2022-10-16T06:09:15;100206.16;;;14.60;84.88
75604;BME280;64187;51.010;13.792;2022-10-16T06:14:14;100207.53;;;14.68;84.55
75604;BME280;64187;51.010;13.792;2022-10-16T06:19:13;100214.34;;;14.75;84.35
75604;BME280;64187;51.010;13.792;2022-10-16T06:24:11;100211.34;;;14.87;84.12
75604;BME280;64187;51.010;13.792;2022-10-16T06:29:10;100219.25;;;14.94;83.91
75604;BME280;64187;51.010;13.792;2022-10-16T06:34:10;100237.22;;;15.00;83.74
75604;BME280;64187;51.010;13.792;2022-10-16T06:39:10;100233.13;;;15.07;83.44
75604;BME280;64187;51.010;13.792;2022-10-16T06:44:08;100233.34;;;15.42;81.10
75604;BME280;64187;51.010;13.792;2022-10-16T06:49:07;100249.66;;;15.57;80.16
75604;BME280;64187;51.010;13.792;2022-10-16T06:54:06;100256.66;;;15.94;78.78
75604;BME280;64187;51.010;13.792;2022-10-16T06:59:05;100259.16;;;15.85;80.52
75604;BME280;64187;51.010;13.792;2022-10-16T07:04:04;100270.06;;;15.90;80.73
75604;BME280;64187;51.010;13.792;2022-10-16T07:09:05;100275.84;;;15.79;81.58
75604;BME280;64187;51.010;13.792;2022-10-16T07:14:04;100273.94;;;15.74;81.80
75604;BME280;64187;51.010;13.792;2022-10-16T07:19:03;100275.03;;;15.73;81.91
75604;BME280;64187;51.010;13.792;2022-10-16T07:24:03;100281.84;;;15.81;81.82
75604;BME280;64187;51.010;13.792;2022-10-16T07:29:03;100297.63;;;15.94;81.77
75604;BME280;64187;51.010;13.792;2022-10-16T07:34:02;100302.00;;;15.90;81.97
75604;BME280;64187;51.010;13.792;2022-10-16T07:39:01;100321.09;;;15.95;81.72
75604;BME280;64187;51.010;13.792;2022-10-16T07:44:00;100328.75;;;15.93;82.21
75604;BME280;64187;51.010;13.792;2022-10-16T07:48:59;100336.09;;;16.03;81.67
75604;BME280;64187;51.010;13.792;2022-10-16T07:53:58;100343.41;;;16.23;81.09
75604;BME280;64187;51.010;13.792;2022-10-16T07:58:57;100347.44;;;16.35;81.12
75604;BME280;64187;51.010;13.792;2022-10-16T08:03:56;100353.09;;;16.49;80.83
75604;BME280;64187;51.010;13.792;2022-10-16T08:08:58;100347.00;;;16.68;79.90
75604;BME280;64187;51.010;13.792;2022-10-16T08:13:58;100326.38;;;16.91;79.44
75604;BME280;64187;51.010;13.792;2022-10-16T08:18:57;100318.00;;;17.11;78.50
75604;BME280;64187;51.010;13.792;2022-10-16T08:23:56;100339.47;;;17.28;78.22
75604;BME280;64187;51.010;13.792;2022-10-16T08:28:56;100337.22;;;17.35;78.39
75604;BME280;64187;51.010;13.792;2022-10-16T08:33:55;100319.84;;;17.50;78.06
75604;BME280;64187;51.010;13.792;2022-10-16T08:38:53;100332.53;;;17.70;77.59
75604;BME280;64187;51.010;13.792;2022-10-16T08:49:16;100343.88;;;18.12;76.08
75604;BME280;64187;51.010;13.792;2022-10-16T08:54:35;100337.53;;;18.16;75.87
75604;BME280;64187;51.010;13.792;2022-10-16T08:59:39;100348.81;;;18.34;75.39
75604;BME280;64187;51.010;13.792;2022-10-16T09:10:29;100331.75;;;18.18;76.23
75604;BME280;64187;51.010;13.792;2022-10-16T09:15:36;100330.78;;;18.27;75.86
75604;BME280;64187;51.010;13.792;2022-10-16T09:25:49;100339.66;;;19.00;72.85
75604;BME280;64187;51.010;13.792;2022-10-16T09:30:49;100345.38;;;19.04;71.71
75604;BME280;64187;51.010;13.792;2022-10-16T09:35:56;100349.66;;;19.10;71.55
75604;BME280;64187;51.010;13.792;2022-10-16T09:40:57;100340.97;;;19.22;71.04
75604;BME280;64187;51.010;13.792;2022-10-16T09:51:06;100358.94;;;19.47;69.86
75604;BME280;64187;51.010;13.792;2022-10-16T09:56:20;100362.59;;;19.42;69.97
75604;BME280;64187;51.010;13.792;2022-10-16T10:01:21;100360.19;;;19.54;70.25
75604;BME280;64187;51.010;13.792;2022-10-16T10:06:24;100367.75;;;19.63;68.94
75604;BME280;64187;51.010;13.792;2022-10-16T10:12:03;100374.34;;;19.62;69.22
75604;BME280;64187;51.010;13.792;2022-10-16T10:22:23;100388.69;;;19.58;69.66
75604;BME280;64187;51.010;13.792;2022-10-16T10:33:07;100399.34;;;19.79;71.23
75604;BME280;64187;51.010;13.792;2022-10-16T10:43:52;100392.41;;;19.82;70.89
75604;BME280;64187;51.010;13.792;2022-10-16T10:54:19;100406.94;;;20.42;65.94
75604;BME280;64187;51.010;13.792;2022-10-16T11:10:19;100404.81;;;21.03;64.19
75604;BME280;64187;51.010;13.792;2022-10-16T11:15:30;100405.19;;;21.11;62.99
75604;BME280;64187;51.010;13.792;2022-10-16T11:20:37;100412.53;;;21.15;62.77
75604;BME280;64187;51.010;13.792;2022-10-16T11:25:39;100407.00;;;20.93;62.68
75604;BME280;64187;51.010;13.792;2022-10-16T11:30:50;100414.72;;;21.04;62.91
75604;BME280;64187;51.010;13.792;2022-10-16T11:41:15;100401.28;;;21.25;60.77
75604;BME280;64187;51.010;13.792;2022-10-16T11:46:21;100418.22;;;21.19;62.16
75604;BME280;64187;51.010;13.792;2022-10-16T11:51:31;100407.78;;;21.29;61.95
75604;BME280;64187;51.010;13.792;2022-10-16T11:56:36;100414.41;;;21.42;61.14
75604;BME280;64187;51.010;13.792;2022-10-16T12:01:58;100423.56;;;21.83;59.90
75604;BME280;64187;51.010;13.792;2022-10-16T12:07:06;100425.16;;;21.53;60.57
75604;BME280;64187;51.010;13.792;2022-10-16T12:12:37;100421.00;;;21.64;58.95
75604;BME280;64187;51.010;13.792;2022-10-16T12:17:38;100420.06;;;21.68;59.38
75604;BME280;64187;51.010;13.792;2022-10-16T12:22:36;100415.22;;;21.97;58.24
75604;BME280;64187;51.010;13.792;2022-10-16T12:27:39;100431.94;;;22.00;58.06
75604;BME280;64187;51.010;13.792;2022-10-16T12:32:38;100426.50;;;21.64;58.91
75604;BME280;64187;51.010;13.792;2022-10-16T12:37:46;100433.91;;;21.77;57.92
75604;BME280;64187;51.010;13.792;2022-10-16T12:42:44;100429.84;;;21.75;58.47
75604;BME280;64187;51.010;13.792;2022-10-16T12:47:50;100436.16;;;21.75;58.46
75604;BME280;64187;51.010;13.792;2022-10-16T12:52:49;100441.13;;;21.96;57.98
75604;BME280;64187;51.010;13.792;2022-10-16T13:19:47;100447.47;;;21.96;56.78
75604;BME280;64187;51.010;13.792;2022-10-16T13:25:23;100451.84;;;21.97;57.02
75604;BME280;64187;51.010;13.792;2022-10-16T13:30:28;100450.72;;;21.98;57.25
75604;BME280;64187;51.010;13.792;2022-10-16T13:35:31;100438.56;;;22.22;56.77
75604;BME280;64187;51.010;13.792;2022-10-16T13:40:30;100446.56;;;22.09;57.58
75604;BME280;64187;51.010;13.792;2022-10-16T13:45:29;100444.75;;;22.05;57.55
75604;BME280;64187;51.010;13.792;2022-10-16T13:50:28;100446.31;;;21.66;59.99
75604;BME280;64187;51.010;13.792;2022-10-16T13:55:27;100448.66;;;21.81;59.19
75604;BME280;64187;51.010;13.792;2022-10-16T14:00:28;100451.25;;;21.55;60.81
75604;BME280;64187;51.010;13.792;2022-10-16T14:05:31;100458.19;;;21.75;59.47
75604;BME280;64187;51.010;13.792;2022-10-16T14:10:33;100472.16;;;21.56;60.18
75604;BME280;64187;51.010;13.792;2022-10-16T14:15:34;100479.88;;;21.45;61.63
75604;BME280;64187;51.010;13.792;2022-10-16T14:20:34;100474.97;;;21.28;62.18
75604;BME280;64187;51.010;13.792;2022-10-16T14:25:33;100475.44;;;21.08;62.70
75604;BME280;64187;51.010;13.792;2022-10-16T14:30:34;100477.81;;;21.01;63.84
75604;BME280;64187;51.010;13.792;2022-10-16T14:35:36;100481.91;;;20.90;63.78
75604;BME280;64187;51.010;13.792;2022-10-16T14:40:37;100476.09;;;20.91;63.13
75604;BME280;64187;51.010;13.792;2022-10-16T14:45:36;100478.34;;;20.75;64.99
75604;BME280;64187;51.010;13.792;2022-10-16T14:50:35;100483.56;;;20.63;66.18
75604;BME280;64187;51.010;13.792;2022-10-16T14:55:36;100487.09;;;20.50;67.22
75604;BME280;64187;51.010;13.792;2022-10-16T15:00:35;100495.72;;;20.43;67.60
75604;BME280;64187;51.010;13.792;2022-10-16T15:05:34;100504.59;;;20.54;66.33
75604;BME280;64187;51.010;13.792;2022-10-16T15:10:38;100513.03;;;20.43;66.97
75604;BME280;64187;51.010;13.792;2022-10-16T15:15:45;100510.28;;;20.43;66.95
75604;BME280;64187;51.010;13.792;2022-10-16T15:20:44;100514.03;;;20.20;67.55
75604;BME280;64187;51.010;13.792;2022-10-16T15:25:45;100523.28;;;20.24;67.70
75604;BME280;64187;51.010;13.792;2022-10-16T15:30:45;100534.56;;;20.09;68.48
75604;BME280;64187;51.010;13.792;2022-10-16T15:35:48;100535.41;;;19.90;69.42
75604;BME280;64187;51.010;13.792;2022-10-16T15:40:48;100542.34;;;19.69;71.52
75604;BME280;64187;51.010;13.792;2022-10-16T15:46:01;100551.31;;;19.55;71.82
75604;BME280;64187;51.010;13.792;2022-10-16T15:51:04;100559.00;;;19.53;71.69
75604;BME280;64187;51.010;13.792;2022-10-16T15:56:05;100561.00;;;19.29;72.59
75604;BME280;64187;51.010;13.792;2022-10-16T16:01:05;100562.28;;;19.12;73.07
75604;BME280;64187;51.010;13.792;2022-10-16T16:06:06;100563.81;;;19.00;74.22
75604;BME280;64187;51.010;13.792;2022-10-16T16:11:07;100571.47;;;18.79;75.05
75604;BME280;64187;51.010;13.792;2022-10-16T16:16:09;100568.03;;;18.63;75.33
75604;BME280;64187;51.010;13.792;2022-10-16T16:21:10;100584.91;;;18.51;75.92
75604;BME280;64187;51.010;13.792;2022-10-16T16:26:20;100575.06;;;18.16;77.70
75604;BME280;64187;51.010;13.792;2022-10-16T16:31:27;100591.00;;;18.08;77.79
75604;BME280;64187;51.010;13.792;2022-10-16T16:36:26;100608.41;;;17.89;78.70
75604;BME280;64187;51.010;13.792;2022-10-16T16:41:27;100616.41;;;17.75;79.23
75604;BME280;64187;51.010;13.792;2022-10-16T16:46:26;100615.69;;;17.59;79.88
75604;BME280;64187;51.010;13.792;2022-10-16T16:51:25;100623.63;;;17.55;79.98
75604;BME280;64187;51.010;13.792;2022-10-16T16:56:25;100639.00;;;17.41;80.33
75604;BME280;64187;51.010;13.792;2022-10-16T17:01:26;100650.84;;;17.21;81.01
75604;BME280;64187;51.010;13.792;2022-10-16T17:06:27;100657.16;;;17.11;81.64
75604;BME280;64187;51.010;13.792;2022-10-16T17:11:28;100662.66;;;17.11;81.10
75604;BME280;64187;51.010;13.792;2022-10-16T17:16:30;100664.59;;;16.95;81.93
75604;BME280;64187;51.010;13.792;2022-10-16T17:21:30;100673.66;;;16.81;82.11
75604;BME280;64187;51.010;13.792;2022-10-16T17:26:30;100683.22;;;16.63;82.21
75604;BME280;64187;51.010;13.792;2022-10-16T17:31:32;100679.38;;;16.53;82.52
75604;BME280;64187;51.010;13.792;2022-10-16T17:36:33;100686.75;;;16.48;82.42
75604;BME280;64187;51.010;13.792;2022-10-16T17:41:33;100690.28;;;16.23;82.92
75604;BME280;64187;51.010;13.792;2022-10-16T17:46:32;100691.09;;;16.23;82.88
75604;BME280;64187;51.010;13.792;2022-10-16T17:51:37;100700.66;;;16.15;82.78
75604;BME280;64187;51.010;13.792;2022-10-16T17:56:36;100712.34;;;15.96;83.45
75604;BME280;64187;51.010;13.792;2022-10-16T18:01:37;100725.38;;;15.78;83.80
75604;BME280;64187;51.010;13.792;2022-10-16T18:06:40;100731.66;;;15.74;84.37
75604;BME280;64187;51.010;13.792;2022-10-16T18:11:50;100736.31;;;15.83;83.75
75604;BME280;64187;51.010;13.792;2022-10-16T18:16:57;100743.75;;;15.98;83.07
75604;BME280;64187;51.010;13.792;2022-10-16T18:21:56;100754.91;;;15.86;83.31
75604;BME280;64187;51.010;13.792;2022-10-16T18:26:56;100761.66;;;15.74;83.61
75604;BME280;64187;51.010;13.792;2022-10-16T18:31:55;100769.22;;;15.61;83.95
75604;BME280;64187;51.010;13.792;2022-10-16T18:36:54;100778.44;;;15.55;84.19
75604;BME280;64187;51.010;13.792;2022-10-16T18:41:55;100788.16;;;15.36;84.89
75604;BME280;64187;51.010;13.792;2022-10-16T18:46:57;100787.06;;;15.37;84.74
75604;BME280;64187;51.010;13.792;2022-10-16T18:51:56;100790.06;;;15.35;84.62
75604;BME280;64187;51.010;13.792;2022-10-16T18:56:55;100786.47;;;15.29;84.75
75604;BME280;64187;51.010;13.792;2022-10-16T19:01:54;100778.53;;;15.23;84.93
75604;BME280;64187;51.010;13.792;2022-10-16T19:06:53;100779.16;;;15.35;84.94
75604;BME280;64187;51.010;13.792;2022-10-16T19:11:52;100773.69;;;15.35;84.82
75604;BME280;64187;51.010;13.792;2022-10-16T19:16:51;100780.75;;;15.26;85.17
75604;BME280;64187;51.010;13.792;2022-10-16T19:21:50;100784.28;;;15.26;85.35
75604;BME280;64187;51.010;13.792;2022-10-16T19:26:53;100801.19;;;15.23;84.83
75604;BME280;64187;51.010;13.792;2022-10-16T19:31:52;100805.25;;;15.21;84.40
75604;BME280;64187;51.010;13.792;2022-10-16T19:36:51;100811.31;;;15.28;84.19
75604;BME280;64187;51.010;13.792;2022-10-16T19:41:50;100815.09;;;15.27;85.17
75604;BME280;64187;51.010;13.792;2022-10-16T19:46:49;100821.91;;;15.24;84.67
75604;BME280;64187;51.010;13.792;2022-10-16T19:51:49;100832.34;;;15.38;84.73
75604;BME280;64187;51.010;13.792;2022-10-16T19:56:49;100836.09;;;15.64;84.58
75604;BME280;64187;51.010;13.792;2022-10-16T20:01:48;100832.53;;;15.58;85.35
75604;BME280;64187;51.010;13.792;2022-10-16T20:06:47;100825.81;;;15.71;85.91
75604;BME280;64187;51.010;13.792;2022-10-16T20:11:45;100825.56;;;15.73;85.95
75604;BME280;64187;51.010;13.792;2022-10-16T20:16:44;100828.34;;;15.83;85.49
75604;BME280;64187;51.010;13.792;2022-10-16T20:21:43;100829.41;;;15.82;85.20
75604;BME280;64187;51.010;13.792;2022-10-16T20:26:42;100838.91;;;15.74;85.07
75604;BME280;64187;51.010;13.792;2022-10-16T20:31:40;100839.19;;;15.73;84.96
75604;BME280;64187;51.010;13.792;2022-10-16T20:36:40;100844.84;;;15.66;85.28
75604;BME280;64187;51.010;13.792;2022-10-16T20:41:40;100835.16;;;15.85;84.66
75604;BME280;64187;51.010;13.792;2022-10-16T20:46:39;100847.63;;;15.71;84.91
75604;BME280;64187;51.010;13.792;2022-10-16T20:51:39;100852.19;;;15.60;85.49
75604;BME280;64187;51.010;13.792;2022-10-16T20:56:38;100859.31;;;15.66;85.15
75604;BME280;64187;51.010;13.792;2022-10-16T21:01:36;100860.66;;;15.64;84.94
75604;BME280;64187;51.010;13.792;2022-10-16T21:06:37;100878.72;;;15.70;84.55
75604;BME280;64187;51.010;13.792;2022-10-16T21:11:37;100867.19;;;15.58;84.82
75604;BME280;64187;51.010;13.792;2022-10-16T21:16:36;100876.44;;;15.57;84.76
75604;BME280;64187;51.010;13.792;2022-10-16T21:21:36;100879.88;;;15.42;85.66
75604;BME280;64187;51.010;13.792;2022-10-16T21:26:35;100887.81;;;15.43;84.82
75604;BME280;64187;51.010;13.792;2022-10-16T21:31:35;100895.44;;;15.14;85.65
75604;BME280;64187;51.010;13.792;2022-10-16T21:36:35;100898.91;;;15.04;85.35
75604;BME280;64187;51.010;13.792;2022-10-16T21:41:35;100905.84;;;14.90;85.64
75604;BME280;64187;51.010;13.792;2022-10-16T21:46:35;100896.16;;;14.77;85.85
75604;BME280;64187;51.010;13.792;2022-10-16T21:51:37;100902.19;;;14.79;86.47
75604;BME280;64187;51.010;13.792;2022-10-16T21:56:36;100897.31;;;14.81;86.61
75604;BME280;64187;51.010;13.792;2022-10-16T22:01:35;100897.84;;;14.78;86.85
75604;BME280;64187;51.010;13.792;2022-10-16T22:06:34;100896.56;;;14.86;87.39
75604;BME280;64187;51.010;13.792;2022-10-16T22:11:35;100900.72;;;14.94;86.69
75604;BME280;64187;51.010;13.792;2022-10-16T22:16:35;100899.38;;;14.96;86.57
75604;BME280;64187;51.010;13.792;2022-10-16T22:21:38;100893.78;;;14.81;86.58
75604;BME280;64187;51.010;13.792;2022-10-16T22:26:37;100891.88;;;14.81;86.58
75604;BME280;64187;51.010;13.792;2022-10-16T22:31:36;100905.44;;;14.76;86.74
75604;BME280;64187;51.010;13.792;2022-10-16T22:36:35;100922.09;;;14.80;86.11
75604;BME280;64187;51.010;13.792;2022-10-16T22:41:34;100927.88;;;14.61;86.32
75604;BME280;64187;51.010;13.792;2022-10-16T22:46:32;100920.22;;;14.58;86.35
75604;BME280;64187;51.010;13.792;2022-10-16T22:51:31;100918.84;;;14.56;86.76
75604;BME280;64187;51.010;13.792;2022-10-16T22:56:30;100911.59;;;14.67;86.97
75604;BME280;64187;51.010;13.792;2022-10-16T23:01:34;100915.25;;;14.77;86.80
75604;BME280;64187;51.010;13.792;2022-10-16T23:06:34;100909.22;;;14.75;86.65
75604;BME280;64187;51.010;13.792;2022-10-16T23:11:33;100922.22;;;14.68;87.00
75604;BME280;64187;51.010;13.792;2022-10-16T23:16:32;100925.22;;;14.67;86.96
75604;BME280;64187;51.010;13.792;2022-10-16T23:21:30;100924.50;;;14.76;86.53
75604;BME280;64187;51.010;13.792;2022-10-16T23:26:29;100934.72;;;14.86;86.05
75604;BME280;64187;51.010;13.792;2022-10-16T23:31:28;100935.03;;;14.68;86.47
75604;BME280;64187;51.010;13.792;2022-10-16T23:36:27;100943.78;;;14.70;86.39
75604;BME280;64187;51.010;13.792;2022-10-16T23:41:26;100939.41;;;14.69;86.38
75604;BME280;64187;51.010;13.792;2022-10-16T23:46:25;100941.00;;;14.64;86.55
75604;BME280;64187;51.010;13.792;2022-10-16T23:51:24;100937.56;;;14.74;86.24
75604;BME280;64187;51.010;13.792;2022-10-16T23:56:22;100941.22;;;14.63;86.57
